Time;durP1;ratioP1;P1;durP2;ratioP2;P2;SDS_P1;SDS_P2;PMS_P1;PMS_P2;Temp;Humidity;BMP_temperature;BMP_pressure;BME280_temperature;BME280_humidity;BME280_pressure;Samples;Min_cycle;Max_cycle;Signal;HPM_P1;HPM_P2
2023/07/04 00:02:16;;;;;;;2.97;2.17;;;19.40;90.20;;;;;;20912066;28;20285;-61
2023/07/04 00:12:18;;;;;;;2.97;2.13;;;19.30;90.70;;;;;;20912078;28;20288;-61
2023/07/04 00:22:20;;;;;;;3.40;2.17;;;19.20;91.30;;;;;;20911468;28;20260;-66
2023/07/04 00:32:22;;;;;;;4.77;2.30;;;19.20;91.80;;;;;;20910826;28;20215;-68
2023/07/04 00:42:25;;;;;;;3.73;2.50;;;19.00;92.50;;;;;;20910669;28;20283;-62
2023/07/04 00:52:34;;;;;;;2.40;2.20;;;19.00;92.70;;;;;;20923045;28;20240;-64
2023/07/04 01:02:37;;;;;;;7.93;2.30;;;18.90;93.20;;;;;;20924708;28;20273;-64
2023/07/04 01:12:40;;;;;;;5.23;2.30;;;18.90;93.40;;;;;;20924593;28;20607;-66
2023/07/04 01:22:57;;;;;;;4.93;2.47;;;18.90;93.70;;;;;;20923152;28;20240;-66
2023/07/04 01:32:59;;;;;;;9.27;2.63;;;18.70;94.10;;;;;;20922780;28;20695;-66
2023/07/04 01:43:02;;;;;;;4.13;2.63;;;18.70;94.40;;;;;;20922165;28;20296;-66
2023/07/04 01:53:04;;;;;;;3.90;2.50;;;18.70;94.70;;;;;;20921234;28;20705;-65
2023/07/04 02:03:06;;;;;;;5.50;2.80;;;18.70;94.90;;;;;;20918762;28;20271;-68
2023/07/04 02:13:08;;;;;;;4.17;2.60;;;18.60;94.90;;;;;;20919803;28;20206;-65
2023/07/04 02:23:09;;;;;;;2.87;2.40;;;18.50;95.10;;;;;;20918627;28;20329;-65
2023/07/04 02:33:11;;;;;;;3.63;2.40;;;18.40;95.30;;;;;;20917855;28;20217;-63
2023/07/04 02:43:14;;;;;;;6.07;2.70;;;18.30;95.50;;;;;;20892742;28;20238;-65
2023/07/04 02:53:21;;;;;;;6.87;2.60;;;18.20;95.80;;;;;;20850646;28;20212;-67
2023/07/04 03:03:23;;;;;;;4.50;2.60;;;18.20;95.90;;;;;;20832825;28;20296;-67
2023/07/04 03:13:25;;;;;;;3.37;2.43;;;18.20;96.10;;;;;;20832396;28;20563;-66
2023/07/04 03:23:26;;;;;;;4.40;2.60;;;18.10;96.10;;;;;;20831672;28;20593;-68
2023/07/04 03:33:28;;;;;;;3.70;2.47;;;18.10;96.20;;;;;;20830916;28;20211;-64
2023/07/04 03:43:30;;;;;;;4.40;2.77;;;18.20;96.30;;;;;;20830753;28;20599;-66
2023/07/04 03:53:37;;;;;;;6.70;2.67;;;18.10;96.40;;;;;;20829999;28;20213;-65
2023/07/04 04:03:39;;;;;;;4.83;2.80;;;;;;;;;;20829197;28;20300;-63
2023/07/04 04:13:41;;;;;;;6.27;2.90;;;18.30;96.50;;;;;;20829514;28;20623;-65
2023/07/04 04:23:43;;;;;;;5.33;2.70;;;18.40;96.40;;;;;;20836847;28;20250;-66
2023/07/04 04:33:45;;;;;;;6.13;2.80;;;18.50;96.30;;;;;;20844877;28;20639;-61
2023/07/04 04:43:50;;;;;;;5.27;2.70;;;18.60;96.10;;;;;;20844377;28;20330;-60
2023/07/04 04:53:52;;;;;;;8.10;2.50;;;18.70;95.80;;;;;;20841675;28;20221;-61
2023/07/04 05:03:55;;;;;;;6.00;2.80;;;18.80;95.60;;;;;;20841772;28;20334;-61
2023/07/04 05:13:57;;;;;;;6.03;2.90;;;18.90;95.40;;;;;;20841933;28;20217;-62
2023/07/04 05:23:59;;;;;;;9.00;3.27;;;18.90;95.30;;;;;;20840249;28;20297;-61
2023/07/04 05:34:01;;;;;;;8.23;3.50;;;19.30;95.40;;;;;;20922249;28;20233;-61
2023/07/04 05:44:06;;;;;;;10.47;3.50;;;19.60;94.50;;;;;;20921640;28;20285;-63
2023/07/04 05:54:07;;;;;;;7.60;3.20;;;20.00;93.10;;;;;;20920484;28;20208;-64
2023/07/04 06:04:11;;;;;;;7.90;3.50;;;19.90;93.00;;;;;;20904834;28;20244;-64
2023/07/04 06:14:21;;;;;;;9.87;3.20;;;20.00;91.80;;;;;;20837117;28;20617;-66
2023/07/04 06:24:23;;;;;;;7.17;3.80;;;20.10;92.00;;;;;;20835820;28;20215;-65
2023/07/04 06:34:25;;;;;;;8.90;3.50;;;20.30;91.20;;;;;;20834892;28;20242;-70
2023/07/04 06:44:27;;;;;;;11.97;3.97;;;20.40;87.80;;;;;;20832544;28;20204;-63
2023/07/04 06:54:29;;;;;;;11.13;4.43;;;20.50;87.60;;;;;;20896438;28;20307;-69
2023/07/04 07:04:30;;;;;;;9.23;4.17;;;20.70;84.40;;;;;;20932188;28;20240;-66
2023/07/04 07:14:32;;;;;;;9.80;3.70;;;20.90;81.70;;;;;;20997393;28;20203;-64
2023/07/04 07:24:34;;;;;;;10.83;3.60;;;21.10;77.10;;;;;;20997634;28;20237;-61
2023/07/04 07:34:36;;;;;;;6.80;3.87;;;21.00;70.90;;;;;;20975377;28;20212;-63
2023/07/04 07:44:37;;;;;;;9.83;4.40;;;21.10;71.40;;;;;;20910172;28;20207;-71
2023/07/04 07:54:39;;;;;;;10.53;3.70;;;21.40;70.40;;;;;;20908327;28;20295;-64
2023/07/04 08:04:41;;;;;;;9.23;4.00;;;21.80;67.00;;;;;;20910754;28;20239;-60
2023/07/04 08:14:43;;;;;;;7.63;3.63;;;21.80;66.60;;;;;;20911377;28;20215;-63
2023/07/04 08:24:45;;;;;;;8.67;3.90;;;21.90;63.50;;;;;;20910686;28;20628;-61
2023/07/04 08:34:47;;;;;;;5.97;3.43;;;22.00;62.70;;;;;;20910259;28;20204;-66
2023/07/04 08:44:52;;;;;;;9.70;3.97;;;22.30;61.10;;;;;;20910511;28;20243;-66
2023/07/04 08:54:56;;;;;;;8.60;4.20;;;22.30;59.90;;;;;;20909632;28;20746;-69
2023/07/04 09:05:23;;;;;;;15.67;8.07;;;22.50;58.90;;;;;;20908962;28;20322;-64
2023/07/04 09:15:36;;;;;;;10.80;4.90;;;22.70;57.30;;;;;;20923405;28;20259;-64
2023/07/04 09:25:38;;;;;;;5.70;3.70;;;22.60;55.60;;;;;;20924257;28;20294;-67
2023/07/04 09:35:40;;;;;;;11.33;4.20;;;22.90;54.60;;;;;;20925862;28;20268;-65
2023/07/04 09:45:41;;;;;;;9.73;4.50;;;23.10;53.60;;;;;;20929967;28;20254;-68
2023/07/04 09:56:01;;;;;;;7.03;4.70;;;23.20;51.80;;;;;;20920973;28;20228;-68
2023/07/04 10:06:04;;;;;;;7.67;4.30;;;23.50;50.30;;;;;;20902323;28;20239;-65
2023/07/04 10:16:23;;;;;;;10.23;5.73;;;23.70;50.20;;;;;;20919206;28;20281;-68
2023/07/04 10:26:24;;;;;;;9.40;6.27;;;23.90;49.00;;;;;;20917746;28;20609;-62
2023/07/04 10:36:31;;;;;;;11.10;6.00;;;24.00;46.50;;;;;;20917409;28;20235;-63
2023/07/04 10:46:48;;;;;;;10.10;6.57;;;24.00;45.90;;;;;;20916740;28;20235;-69
2023/07/04 10:56:55;;;;;;;12.30;6.33;;;24.10;44.30;;;;;;20931532;28;20245;-67
2023/07/04 11:07:03;;;;;;;9.07;5.70;;;24.30;43.80;;;;;;20979573;28;20321;-69
2023/07/04 11:17:06;;;;;;;10.30;5.57;;;24.50;44.00;;;;;;20996907;28;20231;-68
2023/07/04 11:27:20;;;;;;;7.67;5.97;;;24.70;43.90;;;;;;20996418;28;20210;-69
2023/07/04 11:37:31;;;;;;;8.83;6.33;;;24.90;42.90;;;;;;20995305;28;20656;-66
2023/07/04 11:47:35;;;;;;;9.63;6.07;;;25.10;41.90;;;;;;20995146;28;20286;-65
2023/07/04 11:58:08;;;;;;;9.27;6.57;;;25.10;41.70;;;;;;20988499;28;20588;-68
2023/07/04 12:08:18;;;;;;;10.33;8.00;;;25.30;41.50;;;;;;20989507;28;20253;-62
2023/07/04 12:18:29;;;;;;;9.67;6.63;;;25.70;40.50;;;;;;20990113;28;20241;-67
2023/07/04 12:28:31;;;;;;;13.07;6.90;;;26.10;40.10;;;;;;20989256;28;20238;-61
2023/07/04 12:38:38;;;;;;;13.07;7.10;;;26.20;39.40;;;;;;20993678;28;20698;-65
2023/07/04 12:48:42;;;;;;;12.10;6.90;;;25.90;39.00;;;;;;21003329;28;20654;-64
2023/07/04 12:58:47;;;;;;;9.37;6.90;;;25.80;38.50;;;;;;21008003;28;20322;-67
2023/07/04 13:08:54;;;;;;;13.10;5.90;;;25.80;38.70;;;;;;21006473;28;20230;-66
2023/07/04 13:19:05;;;;;;;9.07;6.30;;;26.00;39.20;;;;;;21004554;28;20642;-67
2023/07/04 13:29:17;;;;;;;11.10;7.07;;;25.80;39.20;;;;;;20918547;28;20203;-68
2023/07/04 13:39:22;;;;;;;7.87;5.53;;;25.80;39.90;;;;;;20922213;28;20768;-67
2023/07/04 13:49:44;;;;;;;9.07;5.50;;;25.80;40.10;;;;;;20922716;28;20592;-68
2023/07/04 13:59:47;;;;;;;8.47;5.77;;;25.90;40.30;;;;;;20864169;28;20718;-65
2023/07/04 14:09:49;;;;;;;7.93;5.70;;;26.00;41.00;;;;;;20915164;28;20259;-68
2023/07/04 14:19:53;;;;;;;9.20;6.57;;;26.20;40.70;;;;;;20918091;28;20250;-66
2023/07/04 14:29:58;;;;;;;5.70;4.07;;;26.60;40.30;;;;;;20916808;28;20287;-65
2023/07/04 14:39:59;;;;;;;9.10;4.03;;;26.80;39.60;;;;;;20875004;28;20272;-66
2023/07/04 14:50:07;;;;;;;6.03;3.80;;;26.90;38.80;;;;;;20868802;28;20572;-66
2023/07/04 15:00:13;;;;;;;6.60;3.97;;;26.50;39.20;;;;;;20865881;28;20692;-68
2023/07/04 15:10:17;;;;;;;4.97;3.83;;;27.40;38.70;;;;;;20874718;28;20235;-68
2023/07/04 15:20:19;;;;;;;5.05;3.75;;;30.00;36.10;;;;;;20875103;28;20608;-68
2023/07/04 15:30:21;;;;;;;5.68;3.63;;;28.80;35.90;;;;;;20864171;28;20212;-68
2023/07/04 15:40:26;;;;;;;4.57;3.40;;;28.80;35.90;;;;;;20872644;28;20232;-66
2023/07/04 15:50:29;;;;;;;4.70;3.57;;;28.30;36.10;;;;;;20852416;28;20647;-64
2023/07/04 16:00:32;;;;;;;5.57;3.55;;;28.20;36.10;;;;;;20861126;28;20227;-67
2023/07/04 16:10:34;;;;;;;10.88;4.15;;;28.70;35.60;;;;;;20870319;28;20252;-66
2023/07/04 16:20:35;;;;;;;4.28;3.60;;;30.10;34.70;;;;;;20872923;28;20235;-68
2023/07/04 16:30:38;;;;;;;4.70;3.40;;;32.70;33.00;;;;;;20877062;28;20549;-68
2023/07/04 16:40:40;;;;;;;7.82;4.07;;;33.50;31.20;;;;;;20886371;28;20669;-68
2023/07/04 16:50:42;;;;;;;10.38;3.70;;;30.10;33.50;;;;;;20872208;28;20220;-69
2023/07/04 17:00:44;;;;;;;5.85;3.90;;;28.50;35.40;;;;;;20866218;28;20228;-63
2023/07/04 17:10:47;;;;;;;4.85;3.38;;;28.00;36.70;;;;;;20842288;28;20258;-68
2023/07/04 17:20:49;;;;;;;6.72;3.60;;;30.50;34.70;;;;;;20841498;28;20696;-66
2023/07/04 17:30:58;;;;;;;6.72;3.65;;;31.80;33.20;;;;;;20838464;28;20240;-68
2023/07/04 17:41:02;;;;;;;8.20;3.72;;;30.20;34.80;;;;;;20840074;28;20236;-69
2023/07/04 17:51:09;;;;;;;4.75;3.88;;;32.20;33.20;;;;;;20838766;28;20247;-68
2023/07/04 18:01:14;;;;;;;5.88;3.60;;;32.00;33.10;;;;;;20838184;28;20236;-69
2023/07/04 18:11:17;;;;;;;7.55;3.80;;;28.70;37.00;;;;;;20837700;28;20254;-68
2023/07/04 18:21:22;;;;;;;6.13;3.77;;;27.30;38.80;;;;;;20859981;28;20239;-69
2023/07/04 18:31:27;;;;;;;8.80;3.77;;;26.40;40.40;;;;;;20864876;28;20673;-68
2023/07/04 18:41:33;;;;;;;7.20;3.70;;;25.90;41.70;;;;;;20871031;28;20622;-72
2023/07/04 18:51:39;;;;;;;7.87;3.90;;;25.60;42.90;;;;;;20872880;28;20600;-66
2023/07/04 19:01:41;;;;;;;7.83;4.43;;;25.30;44.00;;;;;;20871051;28;20239;-61
2023/07/04 19:11:44;;;;;;;8.43;4.77;;;25.10;45.00;;;;;;20870217;28;20290;-62
2023/07/04 19:21:46;;;;;;;8.07;5.03;;;24.70;45.90;;;;;;20873989;28;20319;-62
2023/07/04 19:31:49;;;;;;;9.80;4.93;;;24.50;47.10;;;;;;20862693;28;20580;-62
2023/07/04 19:41:51;;;;;;;10.47;5.03;;;24.20;47.60;;;;;;20867205;28;20235;-62
2023/07/04 19:51:53;;;;;;;7.57;4.73;;;24.00;48.30;;;;;;20871602;28;20734;-66
2023/07/04 20:01:55;;;;;;;8.30;4.60;;;23.90;48.80;;;;;;20875299;28;20240;-63
2023/07/04 20:11:57;;;;;;;6.93;4.40;;;23.70;49.10;;;;;;20864767;28;20240;-72
2023/07/04 20:21:58;;;;;;;10.47;4.73;;;23.50;49.20;;;;;;20866127;28;20322;-67
2023/07/04 20:32:00;;;;;;;12.33;4.60;;;23.40;49.60;;;;;;20866483;28;20242;-72
2023/07/04 20:42:03;;;;;;;8.70;4.10;;;23.30;49.70;;;;;;20864035;28;20240;-69
2023/07/04 20:52:05;;;;;;;7.77;4.73;;;23.20;49.70;;;;;;20869919;28;20546;-62
2023/07/04 21:02:08;;;;;;;13.77;4.97;;;23.10;50.70;;;;;;20867390;28;20249;-62
2023/07/04 21:12:10;;;;;;;7.63;4.90;;;23.00;52.00;;;;;;20877912;28;20319;-62
2023/07/04 21:22:12;;;;;;;7.50;4.70;;;22.90;52.50;;;;;;20884523;28;20747;-65
2023/07/04 21:32:13;;;;;;;8.37;4.50;;;22.80;52.90;;;;;;20873068;28;20298;-65
2023/07/04 21:42:15;;;;;;;9.90;4.97;;;22.80;52.90;;;;;;20876190;28;20244;-68
2023/07/04 21:52:17;;;;;;;8.87;4.83;;;22.80;53.20;;;;;;20881360;28;20323;-69
2023/07/04 22:02:19;;;;;;;8.57;4.43;;;22.80;53.30;;;;;;20869854;28;20235;-72
2023/07/04 22:12:21;;;;;;;8.10;4.60;;;22.70;53.60;;;;;;20875148;28;20275;-70
2023/07/04 22:22:23;;;;;;;7.13;4.60;;;22.70;53.70;;;;;;20879048;28;20264;-68
2023/07/04 22:32:25;;;;;;;8.73;4.77;;;22.60;54.40;;;;;;20861679;28;20204;-71
2023/07/04 22:42:27;;;;;;;4.87;3.77;;;22.60;54.00;;;;;;20874618;28;20232;-71
2023/07/04 22:52:28;;;;;;;8.20;3.90;;;22.50;53.90;;;;;;20871373;28;20204;-69
2023/07/04 23:02:30;;;;;;;6.60;3.93;;;22.30;53.90;;;;;;20868885;28;20275;-71
2023/07/04 23:12:32;;;;;;;6.33;4.13;;;22.10;54.30;;;;;;20871991;28;20549;-68
2023/07/04 23:22:34;;;;;;;9.00;4.40;;;22.00;54.80;;;;;;20873104;28;20236;-64
2023/07/04 23:32:35;;;;;;;7.30;4.57;;;21.80;55.40;;;;;;20861783;28;20575;-70
2023/07/04 23:42:38;;;;;;;9.00;4.50;;;21.60;56.20;;;;;;20868437;28;20242;-65
2023/07/04 23:52:40;;;;;;;8.30;4.37;;;21.50;56.70;;;;;;20869535;28;20588;-71
